VTU756 SVMI-TNCM
Flight info
| Callsign | VTU756 |
|---|---|
| Flight time | 1h 27m |
| Altitude | 39000 |
| Route | MIDUR UN779 SILVA UM576 MILOK M576 DANDE |
| Aircraft | B737/M-SDE2E3FGHIRWXY/LB1 |
Departure
| Time | 2026-05-07 12:47 |
|---|---|
| Airport | Maiquetía Simón Bolívar International Airport (SVMI) |
Arrival
| Time | 2026-05-07 14:14 |
|---|---|
| Airport | Princess Juliana International Airport (TNCM) |
| Time | Latitude | Longitude | Altitude | Speed | Heading |
|---|---|---|---|---|---|
| 2026-05-07 10:30 | 10.59817 | -67.00726 | 231 ft | 0 kts | 178° |
| 2026-05-07 12:37 | 10.59838 | -67.00727 | 231 ft | 4 kts | 178° |
| 2026-05-07 12:37 | 10.59865 | -67.00728 | 231 ft | 4 kts | 178° |
| 2026-05-07 12:38 | 10.59887 | -67.00729 | 231 ft | 4 kts | 178° |
| 2026-05-07 12:38 | 10.59907 | -67.00729 | 232 ft | 4 kts | 226° |
| 2026-05-07 12:38 | 10.59913 | -67.00709 | 231 ft | 3 kts | 268° |
| 2026-05-07 12:38 | 10.59914 | -67.00684 | 231 ft | 2 kts | 268° |
| 2026-05-07 12:39 | 10.59914 | -67.00683 | 230 ft | 4 kts | 268° |
| 2026-05-07 12:44 | 10.59914 | -67.00691 | 231 ft | 3 kts | 268° |
| 2026-05-07 12:44 | 10.59913 | -67.00731 | 231 ft | 8 kts | 268° |
| 2026-05-07 12:44 | 10.59911 | -67.00804 | 233 ft | 12 kts | 268° |
| 2026-05-07 12:45 | 10.59906 | -67.00904 | 238 ft | 16 kts | 267° |
| 2026-05-07 12:45 | 10.59902 | -67.01032 | 237 ft | 20 kts | 267° |
| 2026-05-07 12:45 | 10.59897 | -67.01176 | 239 ft | 21 kts | 268° |
| 2026-05-07 12:45 | 10.60001 | -67.01242 | 240 ft | 20 kts | 358° |
| 2026-05-07 12:46 | 10.60138 | -67.01245 | 239 ft | 20 kts | 359° |
| 2026-05-07 12:46 | 10.60276 | -67.01250 | 238 ft | 19 kts | 360° |
| 2026-05-07 12:46 | 10.60375 | -67.01204 | 239 ft | 15 kts | 62° |
| 2026-05-07 12:46 | 10.60384 | -67.01103 | 237 ft | 15 kts | 88° |
| 2026-05-07 12:47 | 10.60395 | -67.00763 | 231 ft | 99 kts | 88° |
| 2026-05-07 12:47 | 10.60424 | -66.99741 | 223 ft | 188 kts | 88° |
| 2026-05-07 12:47 | 10.60494 | -66.98334 | 1177 ft | 196 kts | 85° |
| 2026-05-07 12:47 | 10.60591 | -66.96962 | 2636 ft | 195 kts | 86° |
| 2026-05-07 12:48 | 10.60786 | -66.95611 | 3999 ft | 198 kts | 78° |
| 2026-05-07 12:48 | 10.61100 | -66.94138 | 4548 ft | 229 kts | 79° |
| 2026-05-07 12:48 | 10.61718 | -66.92518 | 4935 ft | 263 kts | 58° |
| 2026-05-07 12:48 | 10.62528 | -66.91548 | 5600 ft | 271 kts | 43° |
| 2026-05-07 12:49 | 10.64142 | -66.90539 | 6666 ft | 280 kts | 22° |
| 2026-05-07 12:49 | 10.66712 | -66.90212 | 7067 ft | 287 kts | 4° |
| 2026-05-07 12:49 | 10.68047 | -66.90180 | 7044 ft | 291 kts | 3° |
| 2026-05-07 12:49 | 10.70071 | -66.90132 | 7064 ft | 290 kts | 4° |
| 2026-05-07 12:50 | 10.72109 | -66.90071 | 7056 ft | 288 kts | 4° |
| 2026-05-07 12:50 | 10.74107 | -66.90003 | 7119 ft | 288 kts | 4° |
| 2026-05-07 12:50 | 10.76105 | -66.89928 | 7742 ft | 294 kts | 4° |
| 2026-05-07 12:50 | 10.78143 | -66.89853 | 8885 ft | 294 kts | 4° |
| 2026-05-07 12:51 | 10.80207 | -66.89773 | 9869 ft | 300 kts | 4° |
| 2026-05-07 12:51 | 10.82311 | -66.89689 | 10734 ft | 310 kts | 5° |
| 2026-05-07 12:51 | 10.84567 | -66.89605 | 11005 ft | 339 kts | 3° |
| 2026-05-07 12:51 | 10.86979 | -66.89647 | 11648 ft | 352 kts | 0° |
| 2026-05-07 12:52 | 10.89442 | -66.89759 | 12535 ft | 355 kts | 0° |
| 2026-05-07 12:52 | 10.91918 | -66.89888 | 13468 ft | 357 kts | 360° |
| 2026-05-07 12:52 | 10.94419 | -66.90018 | 14303 ft | 362 kts | 359° |
| 2026-05-07 12:52 | 10.96947 | -66.90142 | 15128 ft | 366 kts | 359° |
| 2026-05-07 12:53 | 10.99503 | -66.90264 | 15894 ft | 370 kts | 359° |
| 2026-05-07 12:53 | 11.02092 | -66.90383 | 16708 ft | 374 kts | 359° |
| 2026-05-07 12:53 | 11.04705 | -66.90499 | 17517 ft | 377 kts | 359° |
| 2026-05-07 12:53 | 11.07339 | -66.90614 | 18273 ft | 381 kts | 358° |
| 2026-05-07 12:54 | 11.10003 | -66.90728 | 19002 ft | 386 kts | 358° |
| 2026-05-07 12:54 | 11.12696 | -66.90844 | 19681 ft | 390 kts | 358° |
| 2026-05-07 12:54 | 11.15426 | -66.90963 | 20297 ft | 396 kts | 358° |
| 2026-05-07 12:54 | 11.18197 | -66.91085 | 20905 ft | 401 kts | 358° |
| 2026-05-07 12:55 | 11.20996 | -66.91206 | 21513 ft | 405 kts | 358° |
| 2026-05-07 12:55 | 11.23827 | -66.91329 | 22057 ft | 409 kts | 357° |
| 2026-05-07 12:55 | 11.26556 | -66.91792 | 20170 ft | 325 kts | 349° |
| 2026-05-07 12:55 | 11.25998 | -66.91496 | 14920 ft | 370 kts | 162° |
| 2026-05-07 12:56 | 11.23488 | -66.90649 | 16301 ft | 393 kts | 159° |
| 2026-05-07 12:56 | 11.20862 | -66.89502 | 15650 ft | 431 kts | 145° |
| 2026-05-07 12:56 | 11.18792 | -66.87316 | 15634 ft | 416 kts | 118° |
| 2026-05-07 12:56 | 11.17888 | -66.84685 | 16156 ft | 379 kts | 96° |
| 2026-05-07 12:57 | 11.18081 | -66.82115 | 16372 ft | 358 kts | 72° |
| 2026-05-07 12:57 | 11.19287 | -66.79968 | 16346 ft | 347 kts | 46° |
| 2026-05-07 12:57 | 11.21265 | -66.78657 | 16344 ft | 339 kts | 15° |
| 2026-05-07 12:57 | 11.23534 | -66.78788 | 16442 ft | 332 kts | 342° |
| 2026-05-07 12:58 | 11.25524 | -66.79941 | 15876 ft | 343 kts | 324° |
| 2026-05-07 12:58 | 11.27522 | -66.81314 | 15789 ft | 335 kts | 332° |
| 2026-05-07 12:58 | 11.29361 | -66.82642 | 16175 ft | 323 kts | 318° |
| 2026-05-07 12:58 | 11.30965 | -66.84337 | 16299 ft | 345 kts | 315° |
| 2026-05-07 12:59 | 11.32939 | -66.85857 | 16520 ft | 369 kts | 338° |
| 2026-05-07 12:59 | 11.35455 | -66.86426 | 17202 ft | 375 kts | 1° |
| 2026-05-07 12:59 | 11.38072 | -66.86371 | 18145 ft | 378 kts | 3° |
| 2026-05-07 12:59 | 11.40708 | -66.86291 | 19047 ft | 381 kts | 2° |
| 2026-05-07 13:00 | 11.43387 | -66.86212 | 19817 ft | 389 kts | 2° |
| 2026-05-07 13:00 | 11.46114 | -66.86143 | 20543 ft | 395 kts | 1° |
| 2026-05-07 13:00 | 11.48885 | -66.86084 | 21249 ft | 401 kts | 1° |
| 2026-05-07 13:00 | 11.51692 | -66.86031 | 21927 ft | 406 kts | 1° |
| 2026-05-07 13:01 | 11.54537 | -66.85984 | 22557 ft | 412 kts | 0° |
| 2026-05-07 13:01 | 11.57420 | -66.85939 | 23170 ft | 416 kts | 0° |
| 2026-05-07 13:01 | 11.60333 | -66.85895 | 23741 ft | 421 kts | 0° |
| 2026-05-07 13:01 | 11.63286 | -66.85851 | 24245 ft | 427 kts | 0° |
| 2026-05-07 13:02 | 11.66230 | -66.85808 | 24741 ft | 431 kts | 360° |
| 2026-05-07 13:02 | 11.69248 | -66.85763 | 25268 ft | 435 kts | 359° |
| 2026-05-07 13:02 | 11.72287 | -66.85718 | 25784 ft | 439 kts | 359° |
| 2026-05-07 13:02 | 11.75348 | -66.85673 | 26272 ft | 443 kts | 359° |
| 2026-05-07 13:03 | 11.78441 | -66.85627 | 26745 ft | 446 kts | 359° |
| 2026-05-07 13:03 | 11.81557 | -66.85580 | 27189 ft | 450 kts | 359° |
| 2026-05-07 13:03 | 11.84701 | -66.85533 | 27617 ft | 454 kts | 358° |
| 2026-05-07 13:03 | 11.87869 | -66.85486 | 28046 ft | 457 kts | 358° |
| 2026-05-07 13:04 | 11.91063 | -66.85439 | 28488 ft | 460 kts | 358° |
| 2026-05-07 13:04 | 11.94274 | -66.85391 | 28909 ft | 463 kts | 358° |
| 2026-05-07 13:04 | 11.97507 | -66.85342 | 29308 ft | 467 kts | 358° |
| 2026-05-07 13:04 | 12.00765 | -66.85294 | 29700 ft | 470 kts | 358° |
| 2026-05-07 13:05 | 12.04043 | -66.85244 | 30101 ft | 472 kts | 358° |
| 2026-05-07 13:05 | 12.07326 | -66.85194 | 30578 ft | 472 kts | 358° |
| 2026-05-07 13:05 | 12.10616 | -66.85144 | 30998 ft | 474 kts | 358° |
| 2026-05-07 13:05 | 12.13915 | -66.85093 | 31467 ft | 474 kts | 357° |
| 2026-05-07 13:06 | 12.17203 | -66.85044 | 32021 ft | 472 kts | 357° |
| 2026-05-07 13:06 | 12.20478 | -66.84994 | 32604 ft | 469 kts | 357° |
| 2026-05-07 13:06 | 12.23742 | -66.84947 | 33138 ft | 469 kts | 356° |
| 2026-05-07 13:06 | 12.26999 | -66.84898 | 33641 ft | 468 kts | 356° |
| 2026-05-07 13:07 | 12.30253 | -66.84849 | 34184 ft | 467 kts | 356° |
| 2026-05-07 13:07 | 12.33496 | -66.84795 | 34773 ft | 464 kts | 357° |
| 2026-05-07 13:07 | 12.36717 | -66.84633 | 35351 ft | 462 kts | 359° |
| 2026-05-07 13:07 | 12.39921 | -66.84383 | 35852 ft | 461 kts | 0° |
| 2026-05-07 13:08 | 12.43110 | -66.84096 | 36337 ft | 460 kts | 1° |
| 2026-05-07 13:08 | 12.46290 | -66.83800 | 36800 ft | 458 kts | 1° |
| 2026-05-07 13:08 | 12.49468 | -66.83509 | 36992 ft | 459 kts | 0° |
| 2026-05-07 13:08 | 12.52625 | -66.83228 | 36991 ft | 452 kts | 0° |
| 2026-05-07 13:09 | 12.58851 | -66.82694 | 37010 ft | 447 kts | 0° |
| 2026-05-07 13:09 | 12.65042 | -66.82183 | 37015 ft | 446 kts | 0° |
| 2026-05-07 13:10 | 12.71228 | -66.81673 | 37013 ft | 445 kts | 0° |
| 2026-05-07 13:10 | 12.77405 | -66.81162 | 37011 ft | 445 kts | 0° |
| 2026-05-07 13:11 | 12.83580 | -66.80648 | 37009 ft | 445 kts | 0° |
| 2026-05-07 13:11 | 12.89751 | -66.80136 | 37011 ft | 445 kts | 0° |
| 2026-05-07 13:12 | 12.95880 | -66.79628 | 37008 ft | 445 kts | 0° |
| 2026-05-07 13:12 | 13.02045 | -66.79115 | 37012 ft | 444 kts | 0° |
| 2026-05-07 13:13 | 13.08206 | -66.78602 | 37009 ft | 444 kts | 1° |
| 2026-05-07 13:13 | 13.14360 | -66.78089 | 37010 ft | 444 kts | 1° |
| 2026-05-07 13:14 | 13.20516 | -66.77576 | 37010 ft | 444 kts | 1° |
| 2026-05-07 13:14 | 13.26666 | -66.77064 | 37011 ft | 443 kts | 1° |
| 2026-05-07 13:15 | 13.32812 | -66.76553 | 37033 ft | 443 kts | 1° |
| 2026-05-07 13:15 | 13.38952 | -66.76041 | 37037 ft | 443 kts | 1° |
| 2026-05-07 13:16 | 13.45093 | -66.75527 | 37041 ft | 443 kts | 1° |
| 2026-05-07 13:16 | 13.51228 | -66.75016 | 37037 ft | 443 kts | 1° |
| 2026-05-07 13:17 | 13.57374 | -66.74503 | 37038 ft | 443 kts | 1° |
| 2026-05-07 13:17 | 13.63515 | -66.73988 | 37035 ft | 443 kts | 1° |
| 2026-05-07 13:18 | 13.69642 | -66.73476 | 37039 ft | 442 kts | 1° |
| 2026-05-07 13:18 | 13.75738 | -66.72966 | 37037 ft | 442 kts | 1° |
| 2026-05-07 13:19 | 13.81865 | -66.72454 | 37033 ft | 442 kts | 1° |
| 2026-05-07 13:19 | 13.87996 | -66.71940 | 37043 ft | 442 kts | 1° |
| 2026-05-07 13:20 | 13.94127 | -66.71426 | 37047 ft | 442 kts | 1° |
| 2026-05-07 13:20 | 14.00262 | -66.70910 | 37043 ft | 442 kts | 1° |
| 2026-05-07 13:21 | 14.06388 | -66.70398 | 37052 ft | 442 kts | 1° |
| 2026-05-07 13:21 | 14.12510 | -66.69884 | 37048 ft | 441 kts | 1° |
| 2026-05-07 13:22 | 14.18623 | -66.69370 | 37049 ft | 440 kts | 1° |
| 2026-05-07 13:22 | 14.24720 | -66.68857 | 37044 ft | 439 kts | 1° |
| 2026-05-07 13:23 | 14.30809 | -66.68344 | 37048 ft | 438 kts | 1° |
| 2026-05-07 13:23 | 14.36879 | -66.67834 | 37057 ft | 437 kts | 1° |
| 2026-05-07 13:24 | 14.42929 | -66.67172 | 37045 ft | 440 kts | 11° |
| 2026-05-07 13:24 | 14.45825 | -66.66119 | 37060 ft | 444 kts | 22° |
| 2026-05-07 13:24 | 14.48501 | -66.64503 | 37056 ft | 449 kts | 34° |
| 2026-05-07 13:25 | 14.53202 | -66.60229 | 37054 ft | 451 kts | 40° |
| 2026-05-07 13:25 | 14.57804 | -66.55812 | 37052 ft | 452 kts | 40° |
| 2026-05-07 13:26 | 14.62437 | -66.51426 | 37056 ft | 452 kts | 39° |
| 2026-05-07 13:26 | 14.67093 | -66.47071 | 37061 ft | 452 kts | 39° |
| 2026-05-07 13:27 | 14.71758 | -66.42717 | 37066 ft | 452 kts | 39° |
| 2026-05-07 13:27 | 14.76389 | -66.38394 | 37066 ft | 452 kts | 39° |
| 2026-05-07 13:28 | 14.81053 | -66.34035 | 37065 ft | 452 kts | 39° |
| 2026-05-07 13:28 | 14.85716 | -66.29675 | 37066 ft | 452 kts | 39° |
| 2026-05-07 13:29 | 14.90381 | -66.25308 | 37065 ft | 452 kts | 39° |
| 2026-05-07 13:29 | 14.95037 | -66.20948 | 37064 ft | 452 kts | 39° |
| 2026-05-07 13:30 | 14.99693 | -66.16585 | 37068 ft | 452 kts | 39° |
| 2026-05-07 13:30 | 15.04345 | -66.12223 | 37076 ft | 451 kts | 39° |
| 2026-05-07 13:31 | 15.08946 | -66.07819 | 37077 ft | 451 kts | 40° |
| 2026-05-07 13:31 | 15.13505 | -66.03372 | 37085 ft | 450 kts | 40° |
| 2026-05-07 13:32 | 15.18031 | -65.98961 | 37083 ft | 450 kts | 40° |
| 2026-05-07 13:32 | 15.22595 | -65.94521 | 37081 ft | 450 kts | 40° |
| 2026-05-07 13:33 | 15.27167 | -65.90077 | 37085 ft | 452 kts | 40° |
| 2026-05-07 13:33 | 15.31750 | -65.85603 | 37090 ft | 453 kts | 40° |
| 2026-05-07 13:34 | 15.38599 | -65.78825 | 37084 ft | 455 kts | 41° |
| 2026-05-07 13:35 | 15.43174 | -65.74297 | 37084 ft | 455 kts | 41° |
| 2026-05-07 13:35 | 15.47750 | -65.69769 | 37080 ft | 455 kts | 41° |
| 2026-05-07 13:36 | 15.52326 | -65.65239 | 37080 ft | 455 kts | 41° |
| 2026-05-07 13:36 | 15.56897 | -65.60712 | 37078 ft | 454 kts | 41° |
| 2026-05-07 13:37 | 15.61460 | -65.56187 | 37084 ft | 454 kts | 41° |
| 2026-05-07 13:37 | 15.66022 | -65.51659 | 36737 ft | 452 kts | 40° |
| 2026-05-07 13:37 | 15.68290 | -65.49408 | 36497 ft | 450 kts | 40° |
| 2026-05-07 13:38 | 15.70553 | -65.47162 | 36252 ft | 451 kts | 40° |
| 2026-05-07 13:38 | 15.72830 | -65.44904 | 36008 ft | 454 kts | 40° |
| 2026-05-07 13:38 | 15.75120 | -65.42634 | 35757 ft | 457 kts | 40° |
| 2026-05-07 13:38 | 15.77421 | -65.40349 | 35506 ft | 459 kts | 40° |
| 2026-05-07 13:39 | 15.79733 | -65.38053 | 35271 ft | 461 kts | 40° |
| 2026-05-07 13:39 | 15.82054 | -65.35746 | 35022 ft | 463 kts | 40° |
| 2026-05-07 13:39 | 15.84383 | -65.33431 | 34775 ft | 464 kts | 40° |
| 2026-05-07 13:39 | 15.86719 | -65.31107 | 34528 ft | 465 kts | 40° |
| 2026-05-07 13:40 | 15.89024 | -65.28812 | 34279 ft | 466 kts | 40° |
| 2026-05-07 13:40 | 15.91359 | -65.26487 | 34028 ft | 466 kts | 40° |
| 2026-05-07 13:40 | 15.93698 | -65.24158 | 33786 ft | 465 kts | 40° |
| 2026-05-07 13:40 | 15.96036 | -65.21831 | 33538 ft | 465 kts | 40° |
| 2026-05-07 13:41 | 15.98365 | -65.19509 | 33287 ft | 463 kts | 40° |
| 2026-05-07 13:41 | 16.00687 | -65.17192 | 33031 ft | 462 kts | 40° |
| 2026-05-07 13:41 | 16.02997 | -65.14888 | 32788 ft | 457 kts | 40° |
| 2026-05-07 13:41 | 16.04534 | -65.13352 | 32611 ft | 451 kts | 40° |
| 2026-05-07 13:42 | 16.06754 | -65.11137 | 32354 ft | 446 kts | 40° |
| 2026-05-07 13:42 | 16.09744 | -65.08155 | 32030 ft | 445 kts | 40° |
| 2026-05-07 13:42 | 16.11224 | -65.06679 | 31866 ft | 445 kts | 40° |
| 2026-05-07 13:42 | 16.13460 | -65.04458 | 31616 ft | 444 kts | 40° |
| 2026-05-07 13:43 | 16.15693 | -65.02246 | 31368 ft | 443 kts | 40° |
| 2026-05-07 13:43 | 16.17922 | -65.00037 | 31118 ft | 442 kts | 40° |
| 2026-05-07 13:43 | 16.20147 | -64.97831 | 30865 ft | 441 kts | 41° |
| 2026-05-07 13:43 | 16.22365 | -64.95629 | 30618 ft | 440 kts | 41° |
| 2026-05-07 13:44 | 16.24574 | -64.93433 | 30378 ft | 439 kts | 41° |
| 2026-05-07 13:44 | 16.26773 | -64.91239 | 30118 ft | 437 kts | 41° |
| 2026-05-07 13:44 | 16.28958 | -64.89054 | 29869 ft | 435 kts | 41° |
| 2026-05-07 13:44 | 16.31137 | -64.86873 | 29616 ft | 433 kts | 41° |
| 2026-05-07 13:45 | 16.33304 | -64.84704 | 29368 ft | 431 kts | 41° |
| 2026-05-07 13:45 | 16.35460 | -64.82544 | 29118 ft | 429 kts | 41° |
| 2026-05-07 13:45 | 16.37605 | -64.80395 | 28868 ft | 427 kts | 41° |
| 2026-05-07 13:45 | 16.39740 | -64.78255 | 28618 ft | 425 kts | 41° |
| 2026-05-07 13:46 | 16.41864 | -64.76127 | 28368 ft | 423 kts | 41° |
| 2026-05-07 13:46 | 16.43985 | -64.74002 | 28118 ft | 422 kts | 41° |
| 2026-05-07 13:46 | 16.46098 | -64.71884 | 27868 ft | 420 kts | 41° |
| 2026-05-07 13:46 | 16.48198 | -64.69777 | 27619 ft | 419 kts | 41° |
| 2026-05-07 13:47 | 16.50293 | -64.67675 | 27367 ft | 417 kts | 41° |
| 2026-05-07 13:47 | 16.52350 | -64.65611 | 27125 ft | 416 kts | 41° |
| 2026-05-07 13:47 | 16.54431 | -64.63521 | 26875 ft | 414 kts | 41° |
| 2026-05-07 13:47 | 16.56502 | -64.61440 | 26624 ft | 413 kts | 41° |
| 2026-05-07 13:48 | 16.58566 | -64.59367 | 26373 ft | 411 kts | 41° |
| 2026-05-07 13:48 | 16.60621 | -64.57302 | 26125 ft | 409 kts | 41° |
| 2026-05-07 13:48 | 16.62666 | -64.55246 | 25874 ft | 408 kts | 41° |
| 2026-05-07 13:48 | 16.64702 | -64.53198 | 25618 ft | 406 kts | 42° |
| 2026-05-07 13:49 | 16.66732 | -64.51156 | 25375 ft | 404 kts | 42° |
| 2026-05-07 13:49 | 16.68751 | -64.49126 | 25130 ft | 402 kts | 42° |
| 2026-05-07 13:49 | 16.70761 | -64.47103 | 24875 ft | 401 kts | 42° |
| 2026-05-07 13:49 | 16.72761 | -64.45088 | 24621 ft | 399 kts | 41° |
| 2026-05-07 13:50 | 16.74752 | -64.43083 | 24375 ft | 397 kts | 41° |
| 2026-05-07 13:50 | 16.76737 | -64.41084 | 24124 ft | 395 kts | 42° |
| 2026-05-07 13:50 | 16.78709 | -64.39097 | 23875 ft | 394 kts | 42° |
| 2026-05-07 13:50 | 16.80677 | -64.37115 | 23626 ft | 392 kts | 42° |
| 2026-05-07 13:51 | 16.82636 | -64.35139 | 23376 ft | 391 kts | 42° |
| 2026-05-07 13:51 | 16.84585 | -64.33172 | 23129 ft | 389 kts | 42° |
| 2026-05-07 13:51 | 16.86527 | -64.31212 | 22877 ft | 387 kts | 42° |
| 2026-05-07 13:51 | 16.88455 | -64.29265 | 22639 ft | 385 kts | 42° |
| 2026-05-07 13:52 | 16.90375 | -64.27327 | 22373 ft | 383 kts | 42° |
| 2026-05-07 13:52 | 16.92286 | -64.25398 | 22119 ft | 381 kts | 42° |
| 2026-05-07 13:52 | 16.94185 | -64.23480 | 21876 ft | 379 kts | 42° |
| 2026-05-07 13:52 | 16.96078 | -64.21567 | 21626 ft | 377 kts | 42° |
| 2026-05-07 13:53 | 16.97961 | -64.19664 | 21376 ft | 376 kts | 42° |
| 2026-05-07 13:53 | 16.99835 | -64.17769 | 21125 ft | 374 kts | 42° |
| 2026-05-07 13:53 | 17.01703 | -64.15880 | 20877 ft | 373 kts | 42° |
| 2026-05-07 13:53 | 17.03562 | -64.14001 | 20627 ft | 371 kts | 42° |
| 2026-05-07 13:54 | 17.05413 | -64.12129 | 20376 ft | 369 kts | 42° |
| 2026-05-07 13:54 | 17.07253 | -64.10267 | 20125 ft | 367 kts | 42° |
| 2026-05-07 13:54 | 17.09083 | -64.08413 | 19878 ft | 366 kts | 42° |
| 2026-05-07 13:54 | 17.10903 | -64.06567 | 19628 ft | 364 kts | 42° |
| 2026-05-07 13:55 | 17.12716 | -64.04731 | 19375 ft | 362 kts | 42° |
| 2026-05-07 13:55 | 17.14517 | -64.02904 | 19126 ft | 360 kts | 42° |
| 2026-05-07 13:55 | 17.16310 | -64.01087 | 18874 ft | 358 kts | 42° |
| 2026-05-07 13:55 | 17.18072 | -63.99305 | 18627 ft | 357 kts | 42° |
| 2026-05-07 13:56 | 17.19850 | -63.97506 | 18379 ft | 355 kts | 42° |
| 2026-05-07 13:56 | 17.21623 | -63.95713 | 18128 ft | 354 kts | 42° |
| 2026-05-07 13:56 | 17.23387 | -63.93927 | 17878 ft | 352 kts | 42° |
| 2026-05-07 13:56 | 17.25144 | -63.92147 | 17631 ft | 351 kts | 42° |
| 2026-05-07 13:57 | 17.26897 | -63.90372 | 17380 ft | 350 kts | 43° |
| 2026-05-07 13:57 | 17.28644 | -63.88601 | 17129 ft | 349 kts | 43° |
| 2026-05-07 13:57 | 17.30383 | -63.86837 | 16879 ft | 348 kts | 43° |
| 2026-05-07 13:57 | 17.32113 | -63.85082 | 16639 ft | 345 kts | 43° |
| 2026-05-07 13:58 | 17.33834 | -63.83336 | 16377 ft | 345 kts | 43° |
| 2026-05-07 13:58 | 17.35556 | -63.81587 | 16128 ft | 344 kts | 43° |
| 2026-05-07 13:58 | 17.37273 | -63.79846 | 15877 ft | 343 kts | 43° |
| 2026-05-07 13:58 | 17.38983 | -63.78109 | 15640 ft | 342 kts | 43° |
| 2026-05-07 13:59 | 17.40692 | -63.76374 | 15378 ft | 342 kts | 43° |
| 2026-05-07 13:59 | 17.42395 | -63.74642 | 15129 ft | 341 kts | 43° |
| 2026-05-07 13:59 | 17.44097 | -63.72913 | 14879 ft | 340 kts | 43° |
| 2026-05-07 13:59 | 17.45790 | -63.71191 | 14639 ft | 339 kts | 43° |
| 2026-05-07 14:00 | 17.47479 | -63.69474 | 14379 ft | 338 kts | 43° |
| 2026-05-07 14:00 | 17.49130 | -63.67795 | 14346 ft | 332 kts | 43° |
| 2026-05-07 14:00 | 17.50801 | -63.66136 | 13909 ft | 334 kts | 39° |
| 2026-05-07 14:00 | 17.52653 | -63.64664 | 13292 ft | 332 kts | 34° |
| 2026-05-07 14:01 | 17.54552 | -63.63312 | 12754 ft | 328 kts | 33° |
| 2026-05-07 14:01 | 17.56444 | -63.61996 | 12193 ft | 325 kts | 33° |
| 2026-05-07 14:01 | 17.58317 | -63.60689 | 11656 ft | 322 kts | 33° |
| 2026-05-07 14:01 | 17.60160 | -63.59389 | 11158 ft | 317 kts | 34° |
| 2026-05-07 14:02 | 17.61974 | -63.58097 | 10640 ft | 313 kts | 34° |
| 2026-05-07 14:02 | 17.63755 | -63.56821 | 10293 ft | 305 kts | 34° |
| 2026-05-07 14:02 | 17.65458 | -63.55596 | 10165 ft | 290 kts | 34° |
| 2026-05-07 14:02 | 17.67080 | -63.54426 | 10038 ft | 276 kts | 34° |
| 2026-05-07 14:03 | 17.68638 | -63.53303 | 9736 ft | 271 kts | 35° |
| 2026-05-07 14:03 | 17.70178 | -63.52188 | 9403 ft | 267 kts | 35° |
| 2026-05-07 14:03 | 17.71701 | -63.51085 | 9059 ft | 264 kts | 35° |
| 2026-05-07 14:03 | 17.73207 | -63.49994 | 8717 ft | 262 kts | 34° |
| 2026-05-07 14:04 | 17.74698 | -63.48916 | 8369 ft | 259 kts | 35° |
| 2026-05-07 14:04 | 17.76177 | -63.47842 | 8018 ft | 257 kts | 35° |
| 2026-05-07 14:04 | 17.77624 | -63.46791 | 7684 ft | 255 kts | 36° |
| 2026-05-07 14:04 | 17.79076 | -63.45736 | 7353 ft | 252 kts | 36° |
| 2026-05-07 14:05 | 17.80509 | -63.44694 | 7012 ft | 249 kts | 36° |
| 2026-05-07 14:05 | 17.81934 | -63.43660 | 6626 ft | 250 kts | 36° |
| 2026-05-07 14:05 | 17.83359 | -63.42628 | 6299 ft | 249 kts | 36° |
| 2026-05-07 14:05 | 17.84785 | -63.41590 | 5976 ft | 249 kts | 36° |
| 2026-05-07 14:06 | 17.86206 | -63.40557 | 5646 ft | 248 kts | 36° |
| 2026-05-07 14:06 | 17.87627 | -63.39525 | 5314 ft | 249 kts | 36° |
| 2026-05-07 14:06 | 17.89046 | -63.38493 | 5000 ft | 248 kts | 36° |
| 2026-05-07 14:06 | 17.90456 | -63.37469 | 4716 ft | 244 kts | 36° |
| 2026-05-07 14:07 | 17.91808 | -63.36490 | 4655 ft | 227 kts | 37° |
| 2026-05-07 14:07 | 17.93036 | -63.35596 | 4661 ft | 206 kts | 37° |
| 2026-05-07 14:07 | 17.94165 | -63.34776 | 4560 ft | 191 kts | 36° |
| 2026-05-07 14:07 | 17.95208 | -63.34019 | 4445 ft | 175 kts | 37° |
| 2026-05-07 14:08 | 17.96199 | -63.33300 | 4156 ft | 171 kts | 37° |
| 2026-05-07 14:08 | 17.97172 | -63.32593 | 3814 ft | 170 kts | 37° |
| 2026-05-07 14:08 | 17.98134 | -63.31892 | 3578 ft | 164 kts | 37° |
| 2026-05-07 14:08 | 17.99081 | -63.31204 | 3483 ft | 167 kts | 37° |
| 2026-05-07 14:09 | 18.00032 | -63.30511 | 3414 ft | 170 kts | 37° |
| 2026-05-07 14:09 | 18.00990 | -63.29787 | 3272 ft | 171 kts | 46° |
| 2026-05-07 14:09 | 18.01490 | -63.28721 | 3108 ft | 160 kts | 81° |
| 2026-05-07 14:09 | 18.01677 | -63.27561 | 2911 ft | 159 kts | 80° |
| 2026-05-07 14:10 | 18.01865 | -63.26451 | 2777 ft | 153 kts | 82° |
| 2026-05-07 14:10 | 18.02025 | -63.25366 | 2557 ft | 145 kts | 82° |
| 2026-05-07 14:10 | 18.02171 | -63.24351 | 2411 ft | 138 kts | 81° |
| 2026-05-07 14:10 | 18.02312 | -63.23370 | 2214 ft | 133 kts | 81° |
| 2026-05-07 14:11 | 18.02447 | -63.22413 | 2045 ft | 133 kts | 82° |
| 2026-05-07 14:11 | 18.02583 | -63.21449 | 1856 ft | 134 kts | 82° |
| 2026-05-07 14:11 | 18.02719 | -63.20493 | 1684 ft | 132 kts | 82° |
| 2026-05-07 14:11 | 18.02853 | -63.19552 | 1533 ft | 132 kts | 82° |
| 2026-05-07 14:12 | 18.02991 | -63.18603 | 1349 ft | 131 kts | 79° |
| 2026-05-07 14:12 | 18.03156 | -63.17654 | 1162 ft | 132 kts | 78° |
| 2026-05-07 14:12 | 18.03275 | -63.16702 | 992 ft | 131 kts | 82° |
| 2026-05-07 14:12 | 18.03403 | -63.15753 | 806 ft | 131 kts | 79° |
| 2026-05-07 14:13 | 18.03546 | -63.14795 | 536 ft | 132 kts | 82° |
| 2026-05-07 14:13 | 18.03641 | -63.13868 | 409 ft | 126 kts | 81° |
| 2026-05-07 14:13 | 18.03792 | -63.12968 | 272 ft | 124 kts | 79° |
| 2026-05-07 14:13 | 18.03924 | -63.12070 | 85 ft | 125 kts | 81° |
| 2026-05-07 14:14 | 18.04045 | -63.11211 | 27 ft | 103 kts | 83° |
| 2026-05-07 14:14 | 18.04141 | -63.10544 | 27 ft | 83 kts | 82° |
| 2026-05-07 14:14 | 18.04207 | -63.10080 | 26 ft | 32 kts | 83° |
| 2026-05-07 14:14 | 18.04253 | -63.09935 | 27 ft | 14 kts | 54° |
| 2026-05-07 14:15 | 18.04268 | -63.09850 | 28 ft | 14 kts | 155° |
| 2026-05-07 14:15 | 18.04230 | -63.09926 | 28 ft | 13 kts | 263° |
| 2026-05-07 14:15 | 18.04217 | -63.10020 | 26 ft | 13 kts | 261° |
| 2026-05-07 14:15 | 18.04203 | -63.10111 | 26 ft | 12 kts | 263° |
| 2026-05-07 14:16 | 18.04193 | -63.10200 | 29 ft | 12 kts | 263° |
| 2026-05-07 14:16 | 18.04179 | -63.10287 | 26 ft | 12 kts | 260° |
| 2026-05-07 14:16 | 18.04167 | -63.10371 | 27 ft | 12 kts | 262° |
| 2026-05-07 14:16 | 18.04155 | -63.10455 | 27 ft | 12 kts | 262° |
| 2026-05-07 14:17 | 18.04141 | -63.10556 | 27 ft | 16 kts | 263° |
| 2026-05-07 14:17 | 18.04123 | -63.10683 | 26 ft | 19 kts | 262° |
| 2026-05-07 14:17 | 18.04101 | -63.10835 | 26 ft | 23 kts | 260° |
| 2026-05-07 14:17 | 18.04076 | -63.11006 | 27 ft | 25 kts | 261° |
| 2026-05-07 14:18 | 18.04050 | -63.11190 | 27 ft | 27 kts | 255° |
| 2026-05-07 14:18 | 18.04059 | -63.11274 | 26 ft | 7 kts | 309° |
| 2026-05-07 14:18 | 18.04107 | -63.11292 | 26 ft | 8 kts | 350° |
| 2026-05-07 14:18 | 18.04159 | -63.11303 | 27 ft | 7 kts | 348° |
| 2026-05-07 14:19 | 18.04209 | -63.11310 | 28 ft | 7 kts | 352° |
| 2026-05-07 14:19 | 18.04254 | -63.11302 | 28 ft | 7 kts | 40° |
| 2026-05-07 14:19 | 18.04279 | -63.11258 | 28 ft | 7 kts | 62° |
| 2026-05-07 14:19 | 18.04312 | -63.11226 | 28 ft | 7 kts | 14° |
| 2026-05-07 14:20 | 18.04349 | -63.11227 | 28 ft | 0 kts | 351° |